createdAt,value
2018-05-16T00:02:17.340Z,98.36
2018-05-16T00:04:45.605Z,98.71
2018-05-16T00:07:13.869Z,99.30
2018-05-16T00:09:42.898Z,98.97
2018-05-16T00:12:11.268Z,99.24
2018-05-16T00:14:39.536Z,98.96
2018-05-16T00:17:07.816Z,98.76
2018-05-16T00:19:36.102Z,99.18
2018-05-16T00:22:04.361Z,99.98
2018-05-16T00:24:33.377Z,99.70
2018-05-16T00:27:01.670Z,99.56
2018-05-16T00:29:29.921Z,99.44
2018-05-16T00:31:58.197Z,98.33
2018-05-16T00:34:26.476Z,99.15
2018-05-16T00:36:54.753Z,100.00
2018-05-16T00:39:23.012Z,100.00
2018-05-16T00:41:51.283Z,99.70
2018-05-16T00:44:20.309Z,99.81
2018-05-16T00:46:48.669Z,99.81
2018-05-16T00:49:16.953Z,99.29
2018-05-16T00:51:45.201Z,98.87
2018-05-16T00:54:14.265Z,99.54
2018-05-16T00:56:42.633Z,98.98
2018-05-16T00:59:10.905Z,98.31
2018-05-16T01:01:39.165Z,98.31
2018-05-16T01:04:07.425Z,97.87
2018-05-16T01:06:35.686Z,97.77
2018-05-16T01:09:05.425Z,98.01
2018-05-16T01:11:33.792Z,97.88
2018-05-16T01:14:02.081Z,97.62
2018-05-16T01:16:30.328Z,97.51
2018-05-16T01:18:59.357Z,97.72
2018-05-16T01:21:27.604Z,98.33
2018-05-16T01:23:55.857Z,98.81
2018-05-16T01:26:25.315Z,98.74
2018-05-16T01:28:53.664Z,99.16
2018-05-16T01:31:21.941Z,99.21
2018-05-16T01:33:50.207Z,99.35
2018-05-16T01:36:18.467Z,98.88
2018-05-16T01:38:47.524Z,99.37
2018-05-16T01:41:15.808Z,99.58
2018-05-16T01:43:44.060Z,99.75
2018-05-16T01:46:12.309Z,99.39
2018-05-16T01:48:40.601Z,98.90
2018-05-16T01:51:08.853Z,99.06
2018-05-16T01:53:37.875Z,98.41
2018-05-16T01:56:06.274Z,98.11
2018-05-16T01:58:34.622Z,98.60
2018-05-16T02:01:02.896Z,98.26
2018-05-16T02:03:31.181Z,97.83
2018-05-16T02:05:59.478Z,97.57
2018-05-16T02:08:27.829Z,98.19
2018-05-16T02:10:56.097Z,98.61
2018-05-16T02:13:24.385Z,99.51
2018-05-16T02:15:52.658Z,100.00
2018-05-16T02:18:21.037Z,100.00
2018-05-16T02:20:49.297Z,99.72
2018-05-16T02:23:18.413Z,99.55
2018-05-16T02:25:46.728Z,99.81
2018-05-16T02:28:15.069Z,99.92
2018-05-16T02:30:43.321Z,99.09
2018-05-16T02:33:12.440Z,98.23
2018-05-16T02:35:40.712Z,97.67
2018-05-16T02:38:09.000Z,96.97
2018-05-16T02:40:37.289Z,96.68
2018-05-16T02:43:05.649Z,96.46
2018-05-16T02:45:33.916Z,95.91
2018-05-16T02:48:02.189Z,95.69
2018-05-16T02:50:30.473Z,95.73
2018-05-16T02:52:58.733Z,95.78
2018-05-16T02:55:27.770Z,96.97
2018-05-16T02:57:56.083Z,97.28
2018-05-16T03:00:24.298Z,97.58
2018-05-16T03:02:52.561Z,97.37
2018-05-16T03:05:20.824Z,97.56
2018-05-16T03:07:49.836Z,97.83
2018-05-16T03:10:18.115Z,97.37
2018-05-16T03:12:46.373Z,96.88
2018-05-16T03:15:15.485Z,96.37
2018-05-16T03:17:43.677Z,96.85
2018-05-16T03:20:11.929Z,97.03
2018-05-16T03:22:40.221Z,97.41
2018-05-16T03:25:08.592Z,97.99
2018-05-16T03:27:36.872Z,97.68
2018-05-16T03:30:05.149Z,97.75
2018-05-16T03:32:33.521Z,97.39
2018-05-16T03:35:01.777Z,97.36
2018-05-16T03:37:30.795Z,96.93
2018-05-16T03:39:59.069Z,96.78
2018-05-16T03:42:27.349Z,96.49
2018-05-16T03:44:55.650Z,97.11
2018-05-16T03:47:23.925Z,97.50
2018-05-16T03:49:52.183Z,99.09
2018-05-16T03:52:20.436Z,99.73
2018-05-16T03:54:49.465Z,99.36
2018-05-16T03:57:35.573Z,99.64
2018-05-16T04:00:21.532Z,99.19
2018-05-16T04:03:07.595Z,98.64
2018-05-16T04:05:35.857Z,97.96
2018-05-16T04:08:04.134Z,97.92
2018-05-16T04:10:32.462Z,97.35
2018-05-16T04:13:00.832Z,97.70
2018-05-16T04:15:29.106Z,97.72
2018-05-16T04:17:57.388Z,97.88
2018-05-16T04:20:25.651Z,97.57
2018-05-16T04:22:55.531Z,97.76
2018-05-16T04:25:23.853Z,98.16
2018-05-16T04:27:52.161Z,97.96
2018-05-16T04:30:20.508Z,98.13
2018-05-16T04:32:48.768Z,98.34
2018-05-16T04:35:17.802Z,97.71
2018-05-16T04:37:46.159Z,98.24
2018-05-16T04:40:14.404Z,98.67
2018-05-16T04:42:43.443Z,99.09
2018-05-16T04:45:11.696Z,99.62
2018-05-16T04:47:39.980Z,98.83
2018-05-16T04:50:08.293Z,97.82
2018-05-16T04:52:36.539Z,97.15
2018-05-16T04:55:04.804Z,96.54
2018-05-16T04:57:33.076Z,96.97
2018-05-16T05:00:02.193Z,96.91
2018-05-16T05:02:30.471Z,96.93
2018-05-16T05:04:58.746Z,96.43
2018-05-16T05:07:27.004Z,96.84
2018-05-16T05:09:55.271Z,97.02
2018-05-16T05:12:24.310Z,96.36
2018-05-16T05:14:52.562Z,96.53
2018-05-16T05:17:20.812Z,95.46
2018-05-16T05:19:49.847Z,95.71
2018-05-16T05:22:18.097Z,96.21
2018-05-16T05:24:46.349Z,96.28
2018-05-16T05:27:15.386Z,94.67
2018-05-16T05:29:43.636Z,93.94
2018-05-16T05:32:11.918Z,92.39
2018-05-16T05:34:40.188Z,91.98
2018-05-16T05:37:08.444Z,92.71
2018-05-16T05:39:37.485Z,92.74
2018-05-16T05:42:05.773Z,93.05
2018-05-16T05:44:34.022Z,92.77
2018-05-16T05:47:02.282Z,92.68
2018-05-16T05:49:31.307Z,92.67
2018-05-16T05:51:59.575Z,92.38
2018-05-16T05:54:27.832Z,92.81
2018-05-16T05:56:56.947Z,92.94
2018-05-16T05:59:25.249Z,92.81
2018-05-16T06:01:53.465Z,92.41
2018-05-16T06:04:22.488Z,93.28
2018-05-16T06:06:50.742Z,92.29
2018-05-16T06:09:19.850Z,92.96
2018-05-16T06:11:48.129Z,92.81
2018-05-16T06:14:16.385Z,92.11
2018-05-16T06:16:45.512Z,92.45
2018-05-16T06:19:13.774Z,92.10
2018-05-16T06:21:42.031Z,91.95
2018-05-16T06:24:11.152Z,90.86
2018-05-16T06:26:39.425Z,91.40
2018-05-16T06:29:07.689Z,91.06
2018-05-16T06:31:37.940Z,90.02
2018-05-16T06:34:06.217Z,90.44
2018-05-16T06:36:34.469Z,90.69
2018-05-16T06:39:02.730Z,90.49
2018-05-16T06:41:31.846Z,90.02
2018-05-16T06:44:00.133Z,90.71
2018-05-16T06:46:28.385Z,90.92
2018-05-16T06:48:57.506Z,91.80
2018-05-16T06:51:25.761Z,91.85
2018-05-16T06:53:54.784Z,92.00
2018-05-16T06:56:23.124Z,91.56
2018-05-16T06:58:51.332Z,91.88
2018-05-16T07:01:19.574Z,91.63
2018-05-16T07:03:48.605Z,90.99
2018-05-16T07:06:16.872Z,91.02
2018-05-16T07:08:45.141Z,90.49
2018-05-16T07:11:13.409Z,90.91
2018-05-16T07:13:41.667Z,91.14
2018-05-16T07:16:10.685Z,90.35
2018-05-16T07:18:38.956Z,88.91
2018-05-16T07:21:07.249Z,87.96
2018-05-16T07:23:35.517Z,88.70
2018-05-16T07:26:03.791Z,89.01
2018-05-16T07:28:32.045Z,87.37
2018-05-16T07:31:01.161Z,86.86
2018-05-16T07:33:29.438Z,86.52
2018-05-16T07:35:57.684Z,85.69
2018-05-16T07:38:25.942Z,86.62
2018-05-16T07:40:54.249Z,84.71
2018-05-16T07:43:23.360Z,84.94
2018-05-16T07:45:51.636Z,84.17
2018-05-16T07:48:19.917Z,83.27
2018-05-16T07:50:48.161Z,82.53
2018-05-16T07:53:17.193Z,82.77
2018-05-16T07:55:45.464Z,83.09
2018-05-16T07:58:13.721Z,82.39
2018-05-16T08:00:42.731Z,82.52
2018-05-16T08:03:11.016Z,83.11
2018-05-16T08:05:39.260Z,83.45
2018-05-16T08:08:08.287Z,81.63
2018-05-16T08:10:36.653Z,81.06
2018-05-16T08:13:04.914Z,79.85
2018-05-16T08:15:33.934Z,79.80
2018-05-16T08:18:02.207Z,78.96
2018-05-16T08:20:30.457Z,79.13
2018-05-16T08:22:59.585Z,79.85
2018-05-16T08:25:27.959Z,78.11
2018-05-16T08:27:56.212Z,77.67
2018-05-16T08:30:25.233Z,76.52
2018-05-16T08:32:53.509Z,77.65
2018-05-16T08:35:21.756Z,76.46
2018-05-16T08:37:50.768Z,75.57
2018-05-16T08:40:19.060Z,77.87
2018-05-16T08:42:47.316Z,77.09
2018-05-16T08:45:15.589Z,76.68
2018-05-16T08:47:43.861Z,76.35
2018-05-16T08:50:12.884Z,76.32
2018-05-16T08:52:41.145Z,76.94
2018-05-16T08:55:09.532Z,75.30
2018-05-16T08:57:37.803Z,74.06
2018-05-16T09:00:06.821Z,74.49
2018-05-16T09:02:35.090Z,72.45
2018-05-16T09:05:03.450Z,70.82
2018-05-16T09:07:31.708Z,72.07
2018-05-16T09:10:00.818Z,70.75
2018-05-16T09:12:29.105Z,70.26
2018-05-16T09:14:57.373Z,71.14
2018-05-16T09:17:25.731Z,71.62
2018-05-16T09:19:53.928Z,70.10
2018-05-16T09:22:22.208Z,71.39
2018-05-16T09:24:50.472Z,71.73
2018-05-16T09:27:18.789Z,71.48
2018-05-16T09:29:47.045Z,71.10
2018-05-16T09:32:15.419Z,69.56
2018-05-16T09:34:43.709Z,69.74
2018-05-16T09:37:12.062Z,71.77
2018-05-16T09:39:40.348Z,71.55
2018-05-16T09:42:08.589Z,72.13
2018-05-16T09:44:37.705Z,71.53
2018-05-16T09:47:06.032Z,71.29
2018-05-16T09:49:34.342Z,71.07
2018-05-16T09:52:03.465Z,68.41
2018-05-16T09:54:31.738Z,66.14
2018-05-16T09:57:00.018Z,66.23
2018-05-16T09:59:28.332Z,66.53
2018-05-16T10:01:56.688Z,65.79
2018-05-16T10:04:25.045Z,64.57
2018-05-16T10:06:53.297Z,64.11
2018-05-16T10:09:22.336Z,63.30
2018-05-16T10:11:50.621Z,63.35
2018-05-16T10:14:18.931Z,63.38
2018-05-16T10:16:47.749Z,63.70
2018-05-16T10:19:16.037Z,59.50
2018-05-16T10:21:44.313Z,60.17
2018-05-16T10:24:12.572Z,60.60
2018-05-16T10:26:41.609Z,60.99
2018-05-16T10:29:09.876Z,60.04
2018-05-16T10:31:38.153Z,58.58
2018-05-16T10:34:06.410Z,59.26
2018-05-16T10:36:34.657Z,58.66
2018-05-16T10:39:03.694Z,60.35
2018-05-16T10:41:31.954Z,62.49
2018-05-16T10:44:01.060Z,63.66
2018-05-16T10:46:29.349Z,63.21
2018-05-16T10:48:57.647Z,64.47
2018-05-16T10:51:25.909Z,64.13
2018-05-16T10:53:54.173Z,64.02
2018-05-16T10:56:22.424Z,64.64
2018-05-16T10:58:50.712Z,66.58
2018-05-16T11:01:19.001Z,68.44
2018-05-16T11:03:47.271Z,68.17
2018-05-16T11:06:16.578Z,68.01
2018-05-16T11:08:44.912Z,68.77
2018-05-16T11:11:13.932Z,68.23
2018-05-16T11:13:42.177Z,68.85
2018-05-16T11:16:11.211Z,69.96
2018-05-16T11:18:39.458Z,71.89
2018-05-16T11:21:08.472Z,71.26
2018-05-16T11:23:36.760Z,71.37
2018-05-16T11:26:05.070Z,71.23
2018-05-16T11:28:33.400Z,71.72
2018-05-16T11:31:01.701Z,71.73
2018-05-16T11:33:29.949Z,70.91
2018-05-16T11:35:58.205Z,71.65
2018-05-16T11:38:27.322Z,70.89
2018-05-16T11:40:55.578Z,72.19
2018-05-16T11:43:24.597Z,72.34
2018-05-16T11:45:52.951Z,71.63
2018-05-16T11:48:21.255Z,70.22
2018-05-16T11:50:50.290Z,70.80
2018-05-16T11:53:18.648Z,70.88
2018-05-16T11:55:46.925Z,70.64
2018-05-16T11:58:15.181Z,71.16
2018-05-16T12:00:43.448Z,71.24
2018-05-16T12:03:11.710Z,71.49
2018-05-16T12:05:40.821Z,70.44
2018-05-16T12:08:09.089Z,69.17
2018-05-16T12:10:38.197Z,68.58
2018-05-16T12:13:06.477Z,69.09
2018-05-16T12:15:34.745Z,68.06
2018-05-16T12:18:03.757Z,68.99
2018-05-16T12:20:32.009Z,68.30
2018-05-16T12:23:00.306Z,68.03
2018-05-16T12:25:28.554Z,68.66
2018-05-16T12:27:57.577Z,70.45
2018-05-16T12:30:25.837Z,69.74
2018-05-16T12:32:54.089Z,71.21
2018-05-16T12:35:23.107Z,72.14
2018-05-16T12:37:51.396Z,73.14
2018-05-16T12:40:19.677Z,73.77
2018-05-16T12:43:05.775Z,74.56
2018-05-16T12:45:34.036Z,74.84
2018-05-16T12:48:02.313Z,73.79
2018-05-16T12:50:30.577Z,73.65
2018-05-16T12:52:59.606Z,73.56
2018-05-16T12:55:27.864Z,73.29
2018-05-16T12:57:56.128Z,73.14
2018-05-16T13:00:24.379Z,72.78
2018-05-16T13:02:52.691Z,72.55
2018-05-16T13:05:21.012Z,72.11
2018-05-16T13:07:49.365Z,71.80
2018-05-16T13:10:17.610Z,71.35
2018-05-16T13:12:45.879Z,69.88
2018-05-16T13:15:14.995Z,67.75
2018-05-16T13:17:43.350Z,68.69
2018-05-16T13:20:11.551Z,66.67
2018-05-16T13:22:39.814Z,66.14
2018-05-16T13:25:08.060Z,65.56
2018-05-16T13:27:36.336Z,64.03
2018-05-16T13:30:06.129Z,63.42
2018-05-16T13:32:34.377Z,62.95
2018-05-16T13:35:02.734Z,62.82
2018-05-16T13:37:31.053Z,64.00
2018-05-16T13:40:00.005Z,64.19
2018-05-16T13:42:28.277Z,63.00
2018-05-16T13:44:56.553Z,62.78
2018-05-16T13:47:24.846Z,63.62
2018-05-16T13:49:53.106Z,63.41
2018-05-16T13:52:21.392Z,63.69
2018-05-16T13:54:49.648Z,62.39
2018-05-16T13:57:18.680Z,64.02
2018-05-16T13:59:47.035Z,66.92
2018-05-16T14:02:15.315Z,68.61
2018-05-16T14:04:43.587Z,68.07
2018-05-16T14:07:11.871Z,69.06
2018-05-16T14:09:40.122Z,71.36
2018-05-16T14:12:09.242Z,72.12
2018-05-16T14:14:37.511Z,72.35
2018-05-16T14:17:05.789Z,72.76
2018-05-16T14:19:34.060Z,73.90
2018-05-16T14:22:02.326Z,73.51
2018-05-16T14:24:31.436Z,73.48
2018-05-16T14:26:59.762Z,73.64
2018-05-16T14:29:28.030Z,73.16
2018-05-16T14:31:56.281Z,75.40
2018-05-16T14:34:24.547Z,75.87
2018-05-16T14:36:52.909Z,74.90
2018-05-16T14:39:21.181Z,74.80
2018-05-16T14:44:17.781Z,74.90
2018-05-16T14:46:46.129Z,73.35
2018-05-16T14:49:14.411Z,71.33
2018-05-16T14:51:42.660Z,70.35
2018-05-16T14:54:11.685Z,66.31
2018-05-16T14:56:40.060Z,63.77
2018-05-16T14:59:08.337Z,61.86
2018-05-16T15:01:36.689Z,61.36
2018-05-16T15:04:04.872Z,64.13
2018-05-16T15:06:33.898Z,65.82
2018-05-16T15:09:02.147Z,65.99
2018-05-16T15:11:30.413Z,65.78
2018-05-16T15:13:59.536Z,65.49
2018-05-16T15:16:27.776Z,66.51
2018-05-16T15:18:56.809Z,66.66
2018-05-16T15:21:25.057Z,67.40
2018-05-16T15:23:53.360Z,68.49
2018-05-16T15:26:21.648Z,68.84
2018-05-16T15:28:50.000Z,68.21
2018-05-16T15:31:18.273Z,68.72
2018-05-16T15:33:46.548Z,67.59
2018-05-16T15:36:14.842Z,66.31
2018-05-16T15:38:43.104Z,63.66
2018-05-16T15:41:11.380Z,64.71
2018-05-16T15:43:39.672Z,64.64
2018-05-16T15:46:07.941Z,65.20
2018-05-16T15:48:36.299Z,64.15
2018-05-16T15:51:04.469Z,60.58
2018-05-16T15:53:33.581Z,57.43
2018-05-16T15:56:01.869Z,57.20
2018-05-16T15:58:30.117Z,55.96
2018-05-16T16:00:59.143Z,57.54
2018-05-16T16:03:27.500Z,58.18
2018-05-16T16:05:55.761Z,58.69
2018-05-16T16:08:24.785Z,59.40
2018-05-16T16:10:53.049Z,61.68
2018-05-16T16:13:21.304Z,60.94
2018-05-16T16:15:50.331Z,60.52
2018-05-16T16:18:18.610Z,59.84
2018-05-16T16:20:46.848Z,60.80
2018-05-16T16:23:15.864Z,60.33
2018-05-16T16:25:44.132Z,60.48
2018-05-16T16:28:12.386Z,59.80
2018-05-16T16:30:40.693Z,61.00
2018-05-16T16:33:08.965Z,59.92
2018-05-16T16:35:37.231Z,61.41
2018-05-16T16:38:06.253Z,61.67
2018-05-16T16:40:34.553Z,62.39
2018-05-16T16:43:02.898Z,63.47
2018-05-16T16:45:31.184Z,64.64
2018-05-16T16:47:59.470Z,65.89
2018-05-16T16:50:27.718Z,67.18
2018-05-16T16:52:55.988Z,67.78
2018-05-16T16:55:24.287Z,69.16
2018-05-16T16:57:52.574Z,68.55
2018-05-16T17:00:20.833Z,70.26
2018-05-16T17:02:49.119Z,70.55
2018-05-16T17:05:17.483Z,71.27
2018-05-16T17:07:45.912Z,70.93
2018-05-16T17:10:14.309Z,71.47
2018-05-16T17:12:43.556Z,73.18
2018-05-16T17:15:11.991Z,74.67
2018-05-16T17:17:40.533Z,74.23
2018-05-16T17:20:08.831Z,72.73
2018-05-16T17:22:37.470Z,73.40
2018-05-16T17:25:06.021Z,73.18
2018-05-16T17:27:34.384Z,72.90
2018-05-16T17:30:03.000Z,74.03
2018-05-16T17:32:31.411Z,73.84
2018-05-16T17:35:00.455Z,73.85
2018-05-16T17:37:29.721Z,73.64
2018-05-16T17:39:59.395Z,74.15
2018-05-16T17:42:28.300Z,74.20
2018-05-16T17:44:57.584Z,73.79
2018-05-16T17:47:27.267Z,73.37
2018-05-16T17:49:56.250Z,73.69
2018-05-16T17:52:24.988Z,72.79
2018-05-16T17:54:53.881Z,73.30
2018-05-16T17:57:23.666Z,73.48
2018-05-16T17:59:53.465Z,73.78
2018-05-16T18:02:23.238Z,74.29
2018-05-16T18:04:53.140Z,74.11
2018-05-16T18:07:22.469Z,73.69
2018-05-16T18:09:51.933Z,74.35
2018-05-16T18:12:21.764Z,74.19
2018-05-16T18:18:05.597Z,74.85
2018-05-16T18:20:35.502Z,75.52
2018-05-16T18:23:05.403Z,77.32
2018-05-16T18:25:35.506Z,76.83
2018-05-16T18:28:05.370Z,78.10
2018-05-16T18:30:35.155Z,78.42
2018-05-16T18:33:05.749Z,79.15
2018-05-16T18:35:35.699Z,79.44
2018-05-16T18:38:05.559Z,79.30
2018-05-16T18:40:35.369Z,80.05
2018-05-16T18:43:05.538Z,79.08
2018-05-16T18:45:35.403Z,78.96
2018-05-16T18:48:05.610Z,79.50
2018-05-16T18:50:35.584Z,81.17
2018-05-16T18:53:05.384Z,84.35
2018-05-16T18:55:35.320Z,84.17
2018-05-16T18:58:05.245Z,85.49
2018-05-16T19:00:35.312Z,85.98
2018-05-16T19:03:05.092Z,87.68
2018-05-16T19:05:35.902Z,87.14
2018-05-16T19:08:05.629Z,89.28
2018-05-16T19:10:35.790Z,89.31
2018-05-16T19:13:05.083Z,89.62
2018-05-16T19:15:34.396Z,88.97
2018-05-16T19:18:03.791Z,88.99
2018-05-16T19:20:33.051Z,88.50
2018-05-16T19:23:04.447Z,88.73
2018-05-16T19:25:37.659Z,89.50
2018-05-16T19:28:07.083Z,90.45
2018-05-16T19:30:36.365Z,90.33
2018-05-16T19:33:06.625Z,90.65
2018-05-16T19:35:36.646Z,90.29
2018-05-16T19:38:06.759Z,90.54
2018-05-16T19:40:36.883Z,89.73
2018-05-16T19:43:07.048Z,89.67
2018-05-16T19:45:36.301Z,89.06
2018-05-16T19:48:06.486Z,89.25
2018-05-16T19:50:35.829Z,88.39
2018-05-16T19:53:05.960Z,87.04
2018-05-16T19:55:35.249Z,87.80
2018-05-16T19:58:05.445Z,87.89
2018-05-16T20:00:34.850Z,88.15
2018-05-16T20:03:04.368Z,87.77
2018-05-16T20:05:34.519Z,88.02
2018-05-16T20:08:04.865Z,88.11
2018-05-16T20:10:34.185Z,88.69
2018-05-16T20:13:03.573Z,88.20
2018-05-16T20:15:32.801Z,88.68
2018-05-16T20:18:02.106Z,88.52
2018-05-16T20:20:31.498Z,88.43
2018-05-16T20:23:00.830Z,87.94
2018-05-16T20:25:30.966Z,87.84
2018-05-16T20:28:00.244Z,88.17
2018-05-16T20:30:30.352Z,87.70
2018-05-16T20:33:00.588Z,87.47
2018-05-16T20:35:30.741Z,88.05
2018-05-16T20:38:00.000Z,88.39
2018-05-16T20:40:29.286Z,90.18
2018-05-16T20:42:58.641Z,91.15
2018-05-16T20:45:27.824Z,90.54
2018-05-16T20:47:57.025Z,90.47
2018-05-16T20:50:26.346Z,89.46
2018-05-16T20:52:55.440Z,89.04
2018-05-16T20:55:23.739Z,89.55
2018-05-16T20:57:52.090Z,89.55
2018-05-16T21:00:20.349Z,88.63
2018-05-16T21:02:48.609Z,87.18
2018-05-16T21:05:16.874Z,87.49
2018-05-16T21:07:45.140Z,86.97
2018-05-16T21:10:14.155Z,87.43
2018-05-16T21:12:42.425Z,88.09
2018-05-16T21:15:10.683Z,88.12
2018-05-16T21:17:39.729Z,87.86
2018-05-16T21:20:07.997Z,87.54
2018-05-16T21:22:37.020Z,87.58
2018-05-16T21:25:05.292Z,87.75
2018-05-16T21:27:33.715Z,87.85
2018-05-16T21:30:01.976Z,87.51
2018-05-16T21:32:31.014Z,87.81
2018-05-16T21:34:59.387Z,88.43
2018-05-16T21:37:27.669Z,88.72
2018-05-16T21:39:55.933Z,88.80
2018-05-16T21:42:24.202Z,88.97
2018-05-16T21:44:52.483Z,89.49
2018-05-16T21:47:20.793Z,89.21
2018-05-16T21:49:49.077Z,89.57
2018-05-16T21:52:17.993Z,89.84
2018-05-16T21:54:47.008Z,89.89
2018-05-16T21:57:15.296Z,89.97
2018-05-16T21:59:43.548Z,89.74
2018-05-16T22:02:12.575Z,89.21
2018-05-16T22:04:40.857Z,88.96
2018-05-16T22:07:09.113Z,89.47
2018-05-16T22:09:37.379Z,89.16
2018-05-16T22:12:06.438Z,89.01
2018-05-16T22:14:34.715Z,89.00
2018-05-16T22:17:03.864Z,88.59
2018-05-16T22:19:32.216Z,87.25
2018-05-16T22:22:00.398Z,87.67
2018-05-16T22:24:28.669Z,87.25
2018-05-16T22:26:57.706Z,87.10
2018-05-16T22:29:26.024Z,86.21
2018-05-16T22:32:00.613Z,86.20
2018-05-16T22:34:34.316Z,86.03
2018-05-16T22:37:08.121Z,86.85
2018-05-16T22:39:41.978Z,86.61
2018-05-16T22:42:16.441Z,86.54
2018-05-16T22:44:47.472Z,86.29
2018-05-16T22:47:15.774Z,85.47
2018-05-16T22:49:44.056Z,84.80
2018-05-16T22:52:12.482Z,84.45
2018-05-16T22:54:40.869Z,84.48
2018-05-16T22:57:09.119Z,83.96
2018-05-16T22:59:38.140Z,83.86
2018-05-16T23:02:06.408Z,83.51
2018-05-16T23:04:34.669Z,83.57
2018-05-16T23:07:03.721Z,82.99
2018-05-16T23:09:32.001Z,83.30
2018-05-16T23:12:00.349Z,82.96
2018-05-16T23:14:28.613Z,82.39
2018-05-16T23:16:56.956Z,81.71
2018-05-16T23:19:25.212Z,81.92
2018-05-16T23:21:53.471Z,80.64
2018-05-16T23:24:21.741Z,81.23
2018-05-16T23:26:49.999Z,80.11
2018-05-16T23:29:18.277Z,80.63
2018-05-16T23:31:46.540Z,80.68
2018-05-16T23:34:14.821Z,79.94
2018-05-16T23:36:43.116Z,80.26
2018-05-16T23:39:11.486Z,80.28
2018-05-16T23:41:39.756Z,79.74
2018-05-16T23:44:08.044Z,79.60
2018-05-16T23:46:36.329Z,80.13
2018-05-16T23:49:04.591Z,80.30
2018-05-16T23:51:32.852Z,80.98
2018-05-16T23:54:01.230Z,80.90
2018-05-16T23:56:30.266Z,81.34
2018-05-16T23:58:58.540Z,81.97
